sensor_id;sensor_type;location;lat;lon;timestamp;pressure;altitude;pressure_sealevel;temperature;humidity
69455;BME280;56660;51.986;5.930;2022-08-20T00:01:05;101521.63;;;23.25;66.52
69455;BME280;56660;51.986;5.930;2022-08-20T00:03:32;101519.72;;;23.26;66.47
69455;BME280;56660;51.986;5.930;2022-08-20T00:06:02;101510.91;;;23.24;66.25
69455;BME280;56660;51.986;5.930;2022-08-20T00:08:31;101509.03;;;23.24;66.30
69455;BME280;56660;51.986;5.930;2022-08-20T00:10:58;101512.78;;;23.23;66.70
69455;BME280;56660;51.986;5.930;2022-08-20T00:13:27;101513.22;;;23.20;66.38
69455;BME280;56660;51.986;5.930;2022-08-20T00:15:57;101509.66;;;23.20;66.64
69455;BME280;56660;51.986;5.930;2022-08-20T00:18:23;101520.78;;;23.18;66.70
69455;BME280;56660;51.986;5.930;2022-08-20T00:20:52;101521.63;;;23.19;66.79
69455;BME280;56660;51.986;5.930;2022-08-20T00:23:19;101520.78;;;23.18;66.78
69455;BME280;56660;51.986;5.930;2022-08-20T00:25:46;101508.19;;;23.17;66.66
69455;BME280;56660;51.986;5.930;2022-08-20T00:28:13;101497.91;;;23.06;66.89
69455;BME280;56660;51.986;5.930;2022-08-20T00:30:40;101521.19;;;23.15;67.01
69455;BME280;56660;51.986;5.930;2022-08-20T00:33:10;101515.75;;;23.15;66.95
69455;BME280;56660;51.986;5.930;2022-08-20T00:35:40;101514.06;;;23.14;66.96
69455;BME280;56660;51.986;5.930;2022-08-20T00:38:09;101520.78;;;23.12;67.06
69455;BME280;56660;51.986;5.930;2022-08-20T00:40:37;101517.84;;;23.13;67.34
69455;BME280;56660;51.986;5.930;2022-08-20T00:43:12;101521.63;;;23.12;67.13
69455;BME280;56660;51.986;5.930;2022-08-20T00:45:51;101510.31;;;23.08;67.07
69455;BME280;56660;51.986;5.930;2022-08-20T00:48:18;101504.63;;;23.03;67.40
69455;BME280;56660;51.986;5.930;2022-08-20T00:50:44;101514.91;;;23.08;67.28
69455;BME280;56660;51.986;5.930;2022-08-20T00:53:09;101518.47;;;23.08;67.32
69455;BME280;56660;51.986;5.930;2022-08-20T00:55:35;101513.25;;;23.07;67.51
69455;BME280;56660;51.986;5.930;2022-08-20T00:58:04;101528.34;;;23.03;68.10
69455;BME280;56660;51.986;5.930;2022-08-20T01:00:34;101526.03;;;22.93;69.49
69455;BME280;56660;51.986;5.930;2022-08-20T01:03:02;101529.59;;;22.81;70.57
69455;BME280;56660;51.986;5.930;2022-08-20T01:05:33;101512.56;;;22.65;70.45
69455;BME280;56660;51.986;5.930;2022-08-20T01:07:58;101525.78;;;22.62;70.53
69455;BME280;56660;51.986;5.930;2022-08-20T01:10:27;101524.31;;;22.59;70.88
69455;BME280;56660;51.986;5.930;2022-08-20T01:12:57;101519.28;;;22.56;71.38
69455;BME280;56660;51.986;5.930;2022-08-20T01:15:26;101527.44;;;22.56;71.77
69455;BME280;56660;51.986;5.930;2022-08-20T01:17:56;101526.63;;;22.56;72.09
69455;BME280;56660;51.986;5.930;2022-08-20T01:20:29;101528.28;;;22.57;72.13
69455;BME280;56660;51.986;5.930;2022-08-20T01:23:03;101533.94;;;22.55;72.18
69455;BME280;56660;51.986;5.930;2022-08-20T01:25:41;101534.16;;;22.54;72.32
69455;BME280;56660;51.986;5.930;2022-08-20T01:28:10;101532.47;;;22.53;72.31
69455;BME280;56660;51.986;5.930;2022-08-20T01:30:38;101535.84;;;22.55;72.46
69455;BME280;56660;51.986;5.930;2022-08-20T01:33:04;101523.25;;;22.54;72.48
69455;BME280;56660;51.986;5.930;2022-08-20T01:35:34;101524.09;;;22.54;72.66
69455;BME280;56660;51.986;5.930;2022-08-20T01:38:01;101516.97;;;22.53;72.08
69455;BME280;56660;51.986;5.930;2022-08-20T01:40:51;101513.59;;;22.51;72.41
69455;BME280;56660;51.986;5.930;2022-08-20T01:43:28;101525.53;;;22.43;72.10
69455;BME280;56660;51.986;5.930;2022-08-20T01:45:54;101516.75;;;22.41;72.59
69455;BME280;56660;51.986;5.930;2022-08-20T01:48:21;101515.25;;;22.39;72.22
69455;BME280;56660;51.986;5.930;2022-08-20T01:50:54;101517.34;;;22.37;72.22
69455;BME280;56660;51.986;5.930;2022-08-20T01:53:32;101511.47;;;22.33;72.11
69455;BME280;56660;51.986;5.930;2022-08-20T01:56:02;101509.16;;;22.30;72.20
69455;BME280;56660;51.986;5.930;2022-08-20T01:58:31;101510.41;;;22.28;72.22
69455;BME280;56660;51.986;5.930;2022-08-20T02:00:58;101518.59;;;22.28;72.26
69455;BME280;56660;51.986;5.930;2022-08-20T02:03:24;101512.50;;;22.26;72.71
69455;BME280;56660;51.986;5.930;2022-08-20T02:05:50;101511.03;;;22.23;72.55
69455;BME280;56660;51.986;5.930;2022-08-20T02:08:16;101513.75;;;22.23;72.55
69455;BME280;56660;51.986;5.930;2022-08-20T02:10:41;101519.41;;;22.22;72.44
69455;BME280;56660;51.986;5.930;2022-08-20T02:13:08;101525.06;;;22.20;72.29
69455;BME280;56660;51.986;5.930;2022-08-20T02:15:34;101517.09;;;22.19;72.66
69455;BME280;56660;51.986;5.930;2022-08-20T02:18:03;101518.56;;;22.21;72.61
69455;BME280;56660;51.986;5.930;2022-08-20T02:20:30;101513.75;;;22.17;72.67
69455;BME280;56660;51.986;5.930;2022-08-20T02:22:58;101520.66;;;22.12;72.43
69455;BME280;56660;51.986;5.930;2022-08-20T02:25:26;101531.97;;;22.16;72.36
69455;BME280;56660;51.986;5.930;2022-08-20T02:27:58;101530.28;;;22.15;72.56
69455;BME280;56660;51.986;5.930;2022-08-20T02:30:29;101534.25;;;22.12;72.73
69455;BME280;56660;51.986;5.930;2022-08-20T02:32:57;101542.84;;;22.09;72.67
69455;BME280;56660;51.986;5.930;2022-08-20T02:35:23;101546.59;;;22.08;72.99
69455;BME280;56660;51.986;5.930;2022-08-20T02:37:50;101533.84;;;22.09;73.01
69455;BME280;56660;51.986;5.930;2022-08-20T02:40:20;101530.25;;;22.08;73.17
69455;BME280;56660;51.986;5.930;2022-08-20T02:42:47;101532.78;;;22.10;72.74
69455;BME280;56660;51.986;5.930;2022-08-20T02:45:15;101526.06;;;22.06;72.85
69455;BME280;56660;51.986;5.930;2022-08-20T02:47:44;101542.19;;;22.07;72.99
69455;BME280;56660;51.986;5.930;2022-08-20T02:50:12;101539.06;;;22.04;72.99
69455;BME280;56660;51.986;5.930;2022-08-20T02:52:39;101541.09;;;22.02;72.99
69455;BME280;56660;51.986;5.930;2022-08-20T02:55:06;101533.34;;;21.99;73.10
69455;BME280;56660;51.986;5.930;2022-08-20T02:57:32;101531.47;;;21.99;73.29
69455;BME280;56660;51.986;5.930;2022-08-20T02:59:58;101525.38;;;21.97;73.06
69455;BME280;56660;51.986;5.930;2022-08-20T03:02:23;101523.06;;;21.94;72.99
69455;BME280;56660;51.986;5.930;2022-08-20T03:04:50;101523.47;;;21.91;73.05
69455;BME280;56660;51.986;5.930;2022-08-20T03:07:16;101528.06;;;21.91;73.05
69455;BME280;56660;51.986;5.930;2022-08-20T03:09:42;101535.41;;;21.90;72.71
69455;BME280;56660;51.986;5.930;2022-08-20T03:12:07;101534.56;;;21.90;73.06
69455;BME280;56660;51.986;5.930;2022-08-20T03:14:35;101529.94;;;21.90;73.04
69455;BME280;56660;51.986;5.930;2022-08-20T03:17:01;101527.22;;;21.90;73.12
69455;BME280;56660;51.986;5.930;2022-08-20T03:19:26;101522.81;;;21.89;73.21
69455;BME280;56660;51.986;5.930;2022-08-20T03:21:53;101523.88;;;21.88;73.47
69455;BME280;56660;51.986;5.930;2022-08-20T03:24:19;101533.50;;;21.84;73.34
69455;BME280;56660;51.986;5.930;2022-08-20T03:26:45;101539.97;;;21.83;73.27
69455;BME280;56660;51.986;5.930;2022-08-20T03:29:11;101537.66;;;21.80;73.30
69455;BME280;56660;51.986;5.930;2022-08-20T03:31:37;101544.38;;;21.84;73.24
69455;BME280;56660;51.986;5.930;2022-08-20T03:34:03;101538.53;;;21.87;73.56
69455;BME280;56660;51.986;5.930;2022-08-20T03:36:28;101535.81;;;21.87;73.57
69455;BME280;56660;51.986;5.930;2022-08-20T03:38:58;101537.25;;;21.83;73.29
69455;BME280;56660;51.986;5.930;2022-08-20T03:41:25;101542.69;;;21.83;73.25
69455;BME280;56660;51.986;5.930;2022-08-20T03:43:50;101545.41;;;21.83;73.50
69455;BME280;56660;51.986;5.930;2022-08-20T03:46:16;101546.06;;;21.85;73.47
69455;BME280;56660;51.986;5.930;2022-08-20T03:48:42;101535.16;;;21.85;73.23
69455;BME280;56660;51.986;5.930;2022-08-20T03:51:08;101535.16;;;21.85;73.10
69455;BME280;56660;51.986;5.930;2022-08-20T03:53:33;101540.41;;;21.87;73.06
69455;BME280;56660;51.986;5.930;2022-08-20T03:56:03;101540.63;;;21.85;72.91
69455;BME280;56660;51.986;5.930;2022-08-20T03:58:32;101541.03;;;21.82;72.90
69455;BME280;56660;51.986;5.930;2022-08-20T04:00:58;101542.47;;;21.78;73.39
69455;BME280;56660;51.986;5.930;2022-08-20T04:03:24;101543.50;;;21.77;72.94
69455;BME280;56660;51.986;5.930;2022-08-20T04:05:50;101546.63;;;21.74;73.30
69455;BME280;56660;51.986;5.930;2022-08-20T04:08:19;101554.78;;;21.74;73.54
69455;BME280;56660;51.986;5.930;2022-08-20T04:10:48;101564.84;;;21.73;73.38
69455;BME280;56660;51.986;5.930;2022-08-20T04:13:18;101559.59;;;21.72;73.36
69455;BME280;56660;51.986;5.930;2022-08-20T04:15:46;101557.72;;;21.72;73.29
69455;BME280;56660;51.986;5.930;2022-08-20T04:18:13;101563.16;;;21.72;73.71
69455;BME280;56660;51.986;5.930;2022-08-20T04:20:41;101559.81;;;21.70;73.83
69455;BME280;56660;51.986;5.930;2022-08-20T04:23:08;101556.03;;;21.71;73.74
69455;BME280;56660;51.986;5.930;2022-08-20T04:25:36;101556.88;;;21.72;74.10
69455;BME280;56660;51.986;5.930;2022-08-20T04:28:07;101554.16;;;21.72;74.17
69455;BME280;56660;51.986;5.930;2022-08-20T04:30:37;101554.16;;;21.72;74.17
69455;BME280;56660;51.986;5.930;2022-08-20T04:33:05;101557.91;;;21.71;73.76
69455;BME280;56660;51.986;5.930;2022-08-20T04:35:30;101562.72;;;21.69;73.89
69455;BME280;56660;51.986;5.930;2022-08-20T04:37:59;101562.09;;;21.67;74.13
69455;BME280;56660;51.986;5.930;2022-08-20T04:40:27;101571.50;;;21.64;74.31
69455;BME280;56660;51.986;5.930;2022-08-20T04:42:53;101572.78;;;21.68;74.21
69455;BME280;56660;51.986;5.930;2022-08-20T04:45:20;101572.13;;;21.66;74.14
69455;BME280;56660;51.986;5.930;2022-08-20T04:47:47;101566.25;;;21.63;73.96
69455;BME280;56660;51.986;5.930;2022-08-20T04:50:13;101578.81;;;21.64;74.05
69455;BME280;56660;51.986;5.930;2022-08-20T04:52:39;101581.53;;;21.64;73.97
69455;BME280;56660;51.986;5.930;2022-08-20T04:55:05;101576.06;;;21.57;74.10
69455;BME280;56660;51.986;5.930;2022-08-20T04:57:35;101594.09;;;21.65;74.04
69455;BME280;56660;51.986;5.930;2022-08-20T05:00:02;101599.09;;;21.61;73.82
69455;BME280;56660;51.986;5.930;2022-08-20T05:02:33;101595.31;;;21.56;73.90
69455;BME280;56660;51.986;5.930;2022-08-20T05:05:00;101609.09;;;21.54;74.33
69455;BME280;56660;51.986;5.930;2022-08-20T05:07:25;101598.19;;;21.47;74.37
69455;BME280;56660;51.986;5.930;2022-08-20T05:09:52;101593.69;;;21.33;74.48
69455;BME280;56660;51.986;5.930;2022-08-20T05:12:26;101606.50;;;21.18;75.01
69455;BME280;56660;51.986;5.930;2022-08-20T05:14:55;101603.41;;;21.00;75.15
69455;BME280;56660;51.986;5.930;2022-08-20T05:17:27;101618.34;;;20.89;75.04
69455;BME280;56660;51.986;5.930;2022-08-20T05:19:53;101623.91;;;20.81;74.93
69455;BME280;56660;51.986;5.930;2022-08-20T05:22:20;101622.13;;;20.73;74.12
69455;BME280;56660;51.986;5.930;2022-08-20T05:24:45;101620.84;;;20.69;74.45
69455;BME280;56660;51.986;5.930;2022-08-20T05:27:11;101619.53;;;20.65;74.88
69455;BME280;56660;51.986;5.930;2022-08-20T05:29:44;101615.53;;;20.61;75.01
69455;BME280;56660;51.986;5.930;2022-08-20T05:32:13;101617.59;;;20.59;75.42
69455;BME280;56660;51.986;5.930;2022-08-20T05:34:38;101633.69;;;20.61;75.38
69455;BME280;56660;51.986;5.930;2022-08-20T05:37:06;101617.41;;;20.61;76.13
69455;BME280;56660;51.986;5.930;2022-08-20T05:39:35;101617.41;;;20.61;75.68
69455;BME280;56660;51.986;5.930;2022-08-20T05:42:03;101617.00;;;20.64;76.10
69455;BME280;56660;51.986;5.930;2022-08-20T05:44:29;101620.38;;;20.66;76.36
69455;BME280;56660;51.986;5.930;2022-08-20T05:46:57;101624.78;;;20.67;76.93
69455;BME280;56660;51.986;5.930;2022-08-20T05:49:24;101623.94;;;20.66;76.96
69455;BME280;56660;51.986;5.930;2022-08-20T05:51:49;101620.44;;;20.72;77.27
69455;BME280;56660;51.986;5.930;2022-08-20T05:54:15;101626.72;;;20.73;77.32
69455;BME280;56660;51.986;5.930;2022-08-20T05:56:44;101624.84;;;20.73;76.62
69455;BME280;56660;51.986;5.930;2022-08-20T05:59:10;101635.91;;;20.72;75.99
69455;BME280;56660;51.986;5.930;2022-08-20T06:01:39;101616.63;;;20.67;76.36
69455;BME280;56660;51.986;5.930;2022-08-20T06:04:06;101637.78;;;20.71;76.57
69455;BME280;56660;51.986;5.930;2022-08-20T06:06:35;101640.31;;;20.73;76.58
69455;BME280;56660;51.986;5.930;2022-08-20T06:09:00;101648.09;;;20.76;76.33
69455;BME280;56660;51.986;5.930;2022-08-20T06:11:26;101641.41;;;20.78;76.66
69455;BME280;56660;51.986;5.930;2022-08-20T06:13:55;101635.63;;;20.81;76.99
69455;BME280;56660;51.986;5.930;2022-08-20T06:16:21;101630.66;;;20.85;77.00
69455;BME280;56660;51.986;5.930;2022-08-20T06:18:47;101635.69;;;20.88;76.96
69455;BME280;56660;51.986;5.930;2022-08-20T06:21:13;101630.72;;;20.92;77.01
69455;BME280;56660;51.986;5.930;2022-08-20T06:23:38;101631.81;;;20.97;77.04
69455;BME280;56660;51.986;5.930;2022-08-20T06:26:04;101627.69;;;21.01;77.07
69455;BME280;56660;51.986;5.930;2022-08-20T06:28:30;101625.41;;;21.05;76.58
69455;BME280;56660;51.986;5.930;2022-08-20T06:30:57;101627.28;;;21.04;76.31
69455;BME280;56660;51.986;5.930;2022-08-20T06:33:22;101628.78;;;21.07;76.20
69455;BME280;56660;51.986;5.930;2022-08-20T06:35:48;101630.47;;;21.08;75.73
69455;BME280;56660;51.986;5.930;2022-08-20T06:38:13;101635.13;;;21.14;75.51
69455;BME280;56660;51.986;5.930;2022-08-20T06:40:39;101643.53;;;21.19;75.75
69455;BME280;56660;51.986;5.930;2022-08-20T06:43:05;101644.00;;;21.23;75.56
69455;BME280;56660;51.986;5.930;2022-08-20T06:45:31;101648.41;;;21.24;75.85
69455;BME280;56660;51.986;5.930;2022-08-20T06:48:00;101643.34;;;21.21;75.73
69455;BME280;56660;51.986;5.930;2022-08-20T06:50:38;101642.50;;;21.20;75.82
69455;BME280;56660;51.986;5.930;2022-08-20T06:53:06;101651.13;;;21.24;76.14
69455;BME280;56660;51.986;5.930;2022-08-20T06:55:33;101639.28;;;21.31;76.35
69455;BME280;56660;51.986;5.930;2022-08-20T06:58:04;101646.25;;;21.40;76.28
69455;BME280;56660;51.986;5.930;2022-08-20T07:00:33;101640.22;;;21.45;75.85
69455;BME280;56660;51.986;5.930;2022-08-20T07:03:23;101651.81;;;21.54;75.70
69455;BME280;56660;51.986;5.930;2022-08-20T07:05:50;101648.69;;;21.57;75.66
69455;BME280;56660;51.986;5.930;2022-08-20T07:08:16;101637.81;;;21.57;75.01
69455;BME280;56660;51.986;5.930;2022-08-20T07:10:42;101641.38;;;21.57;75.05
69455;BME280;56660;51.986;5.930;2022-08-20T07:13:08;101642.84;;;21.60;75.26
69455;BME280;56660;51.986;5.930;2022-08-20T07:15:35;101646.84;;;21.64;74.32
69455;BME280;56660;51.986;5.930;2022-08-20T07:18:03;101640.41;;;21.71;74.38
69455;BME280;56660;51.986;5.930;2022-08-20T07:20:33;101646.56;;;21.80;73.58
69455;BME280;56660;51.986;5.930;2022-08-20T07:23:02;101647.25;;;21.89;73.93
69455;BME280;56660;51.986;5.930;2022-08-20T07:25:29;101647.72;;;21.99;73.87
69455;BME280;56660;51.986;5.930;2022-08-20T07:27:59;101652.44;;;22.11;72.14
69455;BME280;56660;51.986;5.930;2022-08-20T07:30:28;101654.34;;;22.18;70.06
69455;BME280;56660;51.986;5.930;2022-08-20T07:32:54;101656.88;;;22.19;70.05
69455;BME280;56660;51.986;5.930;2022-08-20T07:35:20;101662.34;;;22.26;69.97
69455;BME280;56660;51.986;5.930;2022-08-20T07:37:49;101664.88;;;22.27;69.42
69455;BME280;56660;51.986;5.930;2022-08-20T07:40:17;101664.25;;;22.32;68.98
69455;BME280;56660;51.986;5.930;2022-08-20T07:42:44;101674.16;;;22.39;68.62
69455;BME280;56660;51.986;5.930;2022-08-20T07:45:12;101669.78;;;22.45;68.69
69455;BME280;56660;51.986;5.930;2022-08-20T07:47:41;101670.22;;;22.49;68.21
69455;BME280;56660;51.986;5.930;2022-08-20T07:50:09;101664.34;;;22.52;67.12
69455;BME280;56660;51.986;5.930;2022-08-20T07:52:39;101671.50;;;22.59;67.24
69455;BME280;56660;51.986;5.930;2022-08-20T07:55:15;101677.19;;;22.64;64.85
69455;BME280;56660;51.986;5.930;2022-08-20T07:57:41;101666.06;;;22.59;64.49
69455;BME280;56660;51.986;5.930;2022-08-20T08:00:10;101675.91;;;22.60;64.86
69455;BME280;56660;51.986;5.930;2022-08-20T08:02:37;101668.38;;;22.62;65.60
69455;BME280;56660;51.986;5.930;2022-08-20T08:05:03;101665.91;;;22.74;64.65
69455;BME280;56660;51.986;5.930;2022-08-20T08:07:31;101669.72;;;22.80;65.04
69455;BME280;56660;51.986;5.930;2022-08-20T08:10:04;101672.06;;;22.89;65.58
69455;BME280;56660;51.986;5.930;2022-08-20T08:12:38;101680.03;;;22.97;66.42
69455;BME280;56660;51.986;5.930;2022-08-20T08:15:21;101678.81;;;23.06;65.26
69455;BME280;56660;51.986;5.930;2022-08-20T08:17:51;101680.69;;;23.13;65.71
69455;BME280;56660;51.986;5.930;2022-08-20T08:20:21;101678.19;;;23.24;66.30
69455;BME280;56660;51.986;5.930;2022-08-20T08:22:50;101683.66;;;23.37;66.93
69455;BME280;56660;51.986;5.930;2022-08-20T08:25:19;101675.72;;;23.42;65.17
69455;BME280;56660;51.986;5.930;2022-08-20T08:27:45;101681.19;;;23.42;63.52
69455;BME280;56660;51.986;5.930;2022-08-20T08:30:15;101685.56;;;23.37;62.30
69455;BME280;56660;51.986;5.930;2022-08-20T08:32:43;101687.44;;;23.30;63.13
69455;BME280;56660;51.986;5.930;2022-08-20T08:35:09;101687.84;;;23.33;63.71
69455;BME280;56660;51.986;5.930;2022-08-20T08:37:35;101694.19;;;23.47;62.46
69455;BME280;56660;51.986;5.930;2022-08-20T08:40:06;101684.16;;;23.54;62.37
69455;BME280;56660;51.986;5.930;2022-08-20T08:42:44;101687.94;;;23.66;62.04
69455;BME280;56660;51.986;5.930;2022-08-20T08:45:27;101695.06;;;23.74;62.00
69455;BME280;56660;51.986;5.930;2022-08-20T08:47:59;101695.28;;;23.79;62.25
69455;BME280;56660;51.986;5.930;2022-08-20T08:50:28;101702.63;;;23.85;60.98
69455;BME280;56660;51.986;5.930;2022-08-20T08:53:01;101698.84;;;23.86;61.91
69455;BME280;56660;51.986;5.930;2022-08-20T08:55:28;101697.34;;;23.90;61.46
69455;BME280;56660;51.986;5.930;2022-08-20T08:57:58;101702.19;;;23.95;60.12
69455;BME280;56660;51.986;5.930;2022-08-20T09:00:27;101706.38;;;23.97;59.50
69455;BME280;56660;51.986;5.930;2022-08-20T09:02:55;101705.13;;;24.00;60.00
69455;BME280;56660;51.986;5.930;2022-08-20T09:05:27;101696.91;;;24.07;60.49
69455;BME280;56660;51.986;5.930;2022-08-20T09:07:57;101703.41;;;24.12;58.52
69455;BME280;56660;51.986;5.930;2022-08-20T09:10:26;101705.94;;;24.14;58.32
69455;BME280;56660;51.986;5.930;2022-08-20T09:12:57;101709.69;;;24.19;58.45
69455;BME280;56660;51.986;5.930;2022-08-20T09:15:24;101706.34;;;24.30;58.64
69455;BME280;56660;51.986;5.930;2022-08-20T09:17:52;101708.81;;;24.45;57.08
69455;BME280;56660;51.986;5.930;2022-08-20T09:20:19;101712.16;;;24.54;56.42
69455;BME280;56660;51.986;5.930;2022-08-20T09:22:47;101710.19;;;24.67;57.83
69455;BME280;56660;51.986;5.930;2022-08-20T09:25:17;101708.19;;;24.88;58.14
69455;BME280;56660;51.986;5.930;2022-08-20T09:27:44;101708.34;;;25.06;57.52
69455;BME280;56660;51.986;5.930;2022-08-20T09:30:13;101699.69;;;25.09;55.49
69455;BME280;56660;51.986;5.930;2022-08-20T09:32:40;101714.91;;;24.98;54.54
69455;BME280;56660;51.986;5.930;2022-08-20T09:35:08;101709.66;;;24.90;54.09
69455;BME280;56660;51.986;5.930;2022-08-20T09:37:36;101704.66;;;24.81;53.41
69455;BME280;56660;51.986;5.930;2022-08-20T09:40:06;101710.91;;;24.94;53.08
69455;BME280;56660;51.986;5.930;2022-08-20T09:42:40;101712.94;;;25.12;51.78
69455;BME280;56660;51.986;5.930;2022-08-20T09:45:23;101714.78;;;25.18;51.59
69455;BME280;56660;51.986;5.930;2022-08-20T09:47:49;101704.47;;;25.20;50.67
69455;BME280;56660;51.986;5.930;2022-08-20T09:50:15;101699.56;;;25.29;51.41
69455;BME280;56660;51.986;5.930;2022-08-20T09:52:43;101702.59;;;25.46;52.15
69455;BME280;56660;51.986;5.930;2022-08-20T09:55:15;101702.59;;;25.46;49.50
69455;BME280;56660;51.986;5.930;2022-08-20T09:57:50;101712.66;;;25.20;48.49
69455;BME280;56660;51.986;5.930;2022-08-20T10:00:17;101713.19;;;25.04;48.56
69455;BME280;56660;51.986;5.930;2022-08-20T10:02:45;101704.00;;;24.85;47.97
69455;BME280;56660;51.986;5.930;2022-08-20T10:05:12;101711.22;;;24.73;49.39
69455;BME280;56660;51.986;5.930;2022-08-20T10:07:39;101716.22;;;24.83;50.21
69455;BME280;56660;51.986;5.930;2022-08-20T10:10:07;101698.28;;;25.00;50.09
69455;BME280;56660;51.986;5.930;2022-08-20T10:12:37;101705.06;;;25.22;50.30
69455;BME280;56660;51.986;5.930;2022-08-20T10:15:03;101702.13;;;25.49;50.72
69455;BME280;56660;51.986;5.930;2022-08-20T10:17:35;101714.03;;;25.68;49.03
69455;BME280;56660;51.986;5.930;2022-08-20T10:20:13;101704.75;;;25.69;48.23
69455;BME280;56660;51.986;5.930;2022-08-20T10:22:40;101706.19;;;25.71;50.19
69455;BME280;56660;51.986;5.930;2022-08-20T10:25:07;101703.94;;;25.86;49.97
69455;BME280;56660;51.986;5.930;2022-08-20T10:27:34;101706.97;;;26.03;49.00
69455;BME280;56660;51.986;5.930;2022-08-20T10:30:05;101703.94;;;26.11;46.91
69455;BME280;56660;51.986;5.930;2022-08-20T10:32:32;101705.84;;;26.11;47.22
69455;BME280;56660;51.986;5.930;2022-08-20T10:34:58;101709.28;;;26.24;46.96
69455;BME280;56660;51.986;5.930;2022-08-20T10:37:26;101720.50;;;26.41;45.84
69455;BME280;56660;51.986;5.930;2022-08-20T10:39:52;101719.53;;;26.36;45.60
69455;BME280;56660;51.986;5.930;2022-08-20T10:42:20;101714.84;;;26.18;44.22
69455;BME280;56660;51.986;5.930;2022-08-20T10:44:46;101718.34;;;26.00;44.71
69455;BME280;56660;51.986;5.930;2022-08-20T10:47:17;101723.13;;;25.86;45.09
69455;BME280;56660;51.986;5.930;2022-08-20T10:49:48;101717.16;;;25.71;45.25
69455;BME280;56660;51.986;5.930;2022-08-20T10:52:15;101718.69;;;25.60;45.71
69455;BME280;56660;51.986;5.930;2022-08-20T10:54:42;101721.19;;;25.69;44.98
69455;BME280;56660;51.986;5.930;2022-08-20T10:57:13;101718.72;;;25.85;44.81
69455;BME280;56660;51.986;5.930;2022-08-20T10:59:41;101714.75;;;26.06;44.38
69455;BME280;56660;51.986;5.930;2022-08-20T11:02:08;101708.38;;;26.31;44.31
69455;BME280;56660;51.986;5.930;2022-08-20T11:04:33;101707.78;;;26.47;42.90
69455;BME280;56660;51.986;5.930;2022-08-20T11:07:11;101711.50;;;26.52;42.65
69455;BME280;56660;51.986;5.930;2022-08-20T11:09:38;101706.41;;;26.56;41.49
69455;BME280;56660;51.986;5.930;2022-08-20T11:12:07;101704.78;;;26.67;41.64
69455;BME280;56660;51.986;5.930;2022-08-20T11:14:34;101714.06;;;26.84;43.50
69455;BME280;56660;51.986;5.930;2022-08-20T11:17:00;101706.69;;;27.14;43.88
69455;BME280;56660;51.986;5.930;2022-08-20T11:19:28;101707.22;;;27.35;42.63
69455;BME280;56660;51.986;5.930;2022-08-20T11:21:55;101711.91;;;27.58;43.77
69455;BME280;56660;51.986;5.930;2022-08-20T11:24:24;101710.66;;;27.83;43.29
69455;BME280;56660;51.986;5.930;2022-08-20T11:26:50;101713.53;;;28.12;42.25
69455;BME280;56660;51.986;5.930;2022-08-20T11:29:18;101707.91;;;28.30;42.04
69455;BME280;56660;51.986;5.930;2022-08-20T11:31:43;101712.16;;;28.49;43.00
69455;BME280;56660;51.986;5.930;2022-08-20T11:34:09;101714.63;;;28.74;42.62
69455;BME280;56660;51.986;5.930;2022-08-20T11:36:35;101722.69;;;29.04;40.25
69455;BME280;56660;51.986;5.930;2022-08-20T11:39:03;101723.31;;;29.23;37.99
69455;BME280;56660;51.986;5.930;2022-08-20T11:41:34;101721.81;;;29.32;37.59
69455;BME280;56660;51.986;5.930;2022-08-20T11:44:03;101713.84;;;29.48;39.01
69455;BME280;56660;51.986;5.930;2022-08-20T11:46:31;101717.03;;;29.73;38.61
69455;BME280;56660;51.986;5.930;2022-08-20T11:48:57;101716.50;;;29.93;38.33
69455;BME280;56660;51.986;5.930;2022-08-20T11:51:22;101722.84;;;30.10;38.51
69455;BME280;56660;51.986;5.930;2022-08-20T11:53:48;101725.06;;;30.30;39.22
69455;BME280;56660;51.986;5.930;2022-08-20T11:56:13;101717.13;;;30.55;39.10
69455;BME280;56660;51.986;5.930;2022-08-20T11:58:40;101716.94;;;30.84;38.82
69455;BME280;56660;51.986;5.930;2022-08-20T12:01:09;101717.78;;;31.11;38.14
69455;BME280;56660;51.986;5.930;2022-08-20T12:03:36;101719.34;;;31.24;36.14
69455;BME280;56660;51.986;5.930;2022-08-20T12:06:01;101719.09;;;31.25;35.63
69455;BME280;56660;51.986;5.930;2022-08-20T12:08:27;101712.06;;;31.18;36.10
69455;BME280;56660;51.986;5.930;2022-08-20T12:10:53;101707.94;;;30.93;36.54
69455;BME280;56660;51.986;5.930;2022-08-20T12:13:18;101711.72;;;30.87;35.54
69455;BME280;56660;51.986;5.930;2022-08-20T12:15:44;101714.28;;;30.50;35.68
69455;BME280;56660;51.986;5.930;2022-08-20T12:18:09;101708.13;;;30.21;35.44
69455;BME280;56660;51.986;5.930;2022-08-20T12:20:37;101714.72;;;30.20;36.22
69455;BME280;56660;51.986;5.930;2022-08-20T12:23:03;101701.91;;;30.53;37.57
69455;BME280;56660;51.986;5.930;2022-08-20T12:25:29;101702.13;;;30.68;36.18
69455;BME280;56660;51.986;5.930;2022-08-20T12:27:55;101708.66;;;30.62;36.89
69455;BME280;56660;51.986;5.930;2022-08-20T12:30:21;101702.88;;;30.85;36.11
69455;BME280;56660;51.986;5.930;2022-08-20T12:33:05;101710.16;;;31.18;35.71
69455;BME280;56660;51.986;5.930;2022-08-20T12:35:37;101701.94;;;31.55;36.29
69455;BME280;56660;51.986;5.930;2022-08-20T12:38:06;101703.91;;;31.97;37.14
69455;BME280;56660;51.986;5.930;2022-08-20T12:40:34;101705.28;;;32.42;36.19
69455;BME280;56660;51.986;5.930;2022-08-20T12:43:03;101713.78;;;32.82;34.00
69455;BME280;56660;51.986;5.930;2022-08-20T12:45:29;101709.28;;;32.76;32.73
69455;BME280;56660;51.986;5.930;2022-08-20T12:48:02;101712.28;;;32.54;32.69
69455;BME280;56660;51.986;5.930;2022-08-20T12:50:30;101708.09;;;32.00;32.03
69455;BME280;56660;51.986;5.930;2022-08-20T12:52:58;101702.38;;;31.42;33.29
69455;BME280;56660;51.986;5.930;2022-08-20T12:55:23;101709.25;;;31.40;31.38